createdAt,value
2022-09-30T00:00:37.492Z,74.30
2022-09-30T00:03:05.787Z,74.10
2022-09-30T00:05:34.235Z,73.90
2022-09-30T00:08:05.885Z,74.00
2022-09-30T00:10:34.256Z,74.20
2022-09-30T00:13:02.815Z,74.00
2022-09-30T00:15:32.420Z,74.00
2022-09-30T00:18:02.775Z,74.10
2022-09-30T00:20:31.278Z,74.10
2022-09-30T00:22:59.546Z,74.20
2022-09-30T00:25:30.608Z,74.30
2022-09-30T00:27:58.911Z,74.40
2022-09-30T00:30:29.499Z,74.00
2022-09-30T00:32:58.156Z,74.00
2022-09-30T00:35:31.906Z,74.20
2022-09-30T00:38:00.640Z,73.80
2022-09-30T00:40:30.607Z,74.10
2022-09-30T00:42:58.962Z,74.20
2022-09-30T00:45:29.274Z,74.50
2022-09-30T00:48:10.329Z,74.00
2022-09-30T00:50:42.481Z,73.70
2022-09-30T00:53:15.734Z,73.90
2022-09-30T00:56:04.113Z,74.50
2022-09-30T00:58:46.024Z,74.00
2022-09-30T01:01:25.155Z,74.20
2022-09-30T01:04:01.634Z,74.20
2022-09-30T01:06:30.304Z,74.00
2022-09-30T01:08:59.850Z,74.00
2022-09-30T01:11:45.011Z,73.80
2022-09-30T01:14:17.179Z,74.00
2022-09-30T01:16:56.152Z,74.10
2022-09-30T01:19:40.627Z,73.80
2022-09-30T01:22:22.878Z,73.80
2022-09-30T01:25:27.065Z,73.80
2022-09-30T01:28:34.879Z,73.90
2022-09-30T01:31:18.235Z,73.60
2022-09-30T01:34:12.779Z,73.70
2022-09-30T01:36:55.362Z,74.00
2022-09-30T01:39:35.250Z,73.70
2022-09-30T01:42:12.786Z,73.70
2022-09-30T01:44:50.306Z,73.70
2022-09-30T01:47:32.859Z,73.60
2022-09-30T01:50:11.710Z,74.00
2022-09-30T01:52:46.536Z,73.80
2022-09-30T01:55:29.674Z,73.90
2022-09-30T02:01:45.655Z,74.30
2022-09-30T02:04:21.475Z,73.80
2022-09-30T02:07:02.276Z,73.80
2022-09-30T02:09:35.328Z,74.00
2022-09-30T02:12:12.880Z,73.80
2022-09-30T02:14:47.760Z,73.80
2022-09-30T02:17:20.508Z,74.20
2022-09-30T02:19:55.592Z,74.20
2022-09-30T02:22:33.118Z,74.20
2022-09-30T02:25:04.688Z,74.20
2022-09-30T02:27:42.500Z,74.30
2022-09-30T02:30:13.912Z,74.00
2022-09-30T02:32:49.933Z,74.20
2022-09-30T02:35:25.759Z,74.00
2022-09-30T02:37:59.769Z,74.20
2022-09-30T02:40:33.142Z,74.40
2022-09-30T02:43:04.409Z,74.50
2022-09-30T02:45:41.672Z,74.60
2022-09-30T02:48:26.425Z,74.30
2022-09-30T02:51:05.341Z,74.20
2022-09-30T02:53:38.696Z,74.30
2022-09-30T02:56:24.823Z,74.40
2022-09-30T02:58:54.181Z,74.50
2022-09-30T03:01:22.361Z,74.40
2022-09-30T03:03:56.991Z,74.50
2022-09-30T03:06:26.984Z,74.50
2022-09-30T03:08:55.626Z,75.00
2022-09-30T03:11:26.096Z,74.60
2022-09-30T03:14:19.230Z,75.00
2022-09-30T03:17:20.400Z,74.50
2022-09-30T03:20:10.196Z,74.50
2022-09-30T03:23:04.441Z,74.50
2022-09-30T03:25:43.774Z,74.30
2022-09-30T03:28:21.975Z,74.90
2022-09-30T03:31:00.768Z,74.60
2022-09-30T03:33:37.549Z,74.90
2022-09-30T03:36:13.039Z,74.60
2022-09-30T03:38:49.215Z,74.80
2022-09-30T03:41:26.556Z,74.80
2022-09-30T03:44:02.271Z,75.00
2022-09-30T03:46:35.954Z,75.10
2022-09-30T03:49:08.308Z,74.90
2022-09-30T03:51:39.093Z,75.10
2022-09-30T03:54:11.321Z,75.10
2022-09-30T03:56:43.193Z,75.10
2022-09-30T03:59:23.138Z,75.30
2022-09-30T04:01:51.754Z,75.10
2022-09-30T04:04:20.412Z,75.30
2022-09-30T04:06:48.756Z,75.00
2022-09-30T04:09:19.002Z,75.10
2022-09-30T04:11:47.185Z,75.10
2022-09-30T04:14:15.393Z,74.80
2022-09-30T04:16:43.530Z,75.00
2022-09-30T04:19:11.672Z,74.80
2022-09-30T04:21:39.907Z,75.10
2022-09-30T04:24:08.770Z,75.10
2022-09-30T04:26:38.334Z,74.80
2022-09-30T04:29:06.603Z,75.00
2022-09-30T04:31:34.829Z,75.00
2022-09-30T04:34:06.345Z,75.10
2022-09-30T04:36:34.475Z,75.10
2022-09-30T04:39:05.232Z,75.20
2022-09-30T04:41:34.247Z,75.10
2022-09-30T04:44:06.387Z,75.40
2022-09-30T04:46:36.893Z,75.20
2022-09-30T04:49:08.963Z,75.10
2022-09-30T04:51:38.508Z,74.90
2022-09-30T04:54:08.796Z,74.90
2022-09-30T04:56:39.658Z,74.90
2022-09-30T04:59:09.421Z,74.90
2022-09-30T05:01:39.356Z,75.10
2022-09-30T05:04:08.337Z,75.10
2022-09-30T05:06:36.851Z,75.10
2022-09-30T05:09:05.151Z,75.00
2022-09-30T05:11:33.284Z,75.10
2022-09-30T05:14:01.482Z,75.20
2022-09-30T05:16:31.064Z,75.60
2022-09-30T05:18:59.233Z,75.50
2022-09-30T05:21:28.366Z,75.00
2022-09-30T05:23:56.600Z,75.30
2022-09-30T05:26:24.737Z,75.40
2022-09-30T05:28:53.005Z,75.40
2022-09-30T05:31:21.874Z,75.30
2022-09-30T05:33:54.622Z,75.50
2022-09-30T05:36:26.004Z,75.30
2022-09-30T05:38:54.796Z,75.40
2022-09-30T05:41:24.536Z,75.30
2022-09-30T05:43:52.772Z,75.10
2022-09-30T05:46:27.258Z,75.60
2022-09-30T05:48:57.259Z,75.60
2022-09-30T05:51:25.463Z,75.70
2022-09-30T05:53:53.626Z,75.50
2022-09-30T05:56:21.923Z,75.80
2022-09-30T05:58:52.540Z,75.70
2022-09-30T06:01:20.742Z,75.70
2022-09-30T06:03:49.015Z,75.90
2022-09-30T06:06:21.247Z,76.00
2022-09-30T06:08:51.497Z,76.10
2022-09-30T06:11:23.477Z,76.30
2022-09-30T06:13:52.420Z,76.30
2022-09-30T06:16:21.013Z,76.10
2022-09-30T06:18:49.228Z,76.20
2022-09-30T06:21:19.501Z,76.10
2022-09-30T06:23:47.867Z,76.00
2022-09-30T06:26:16.611Z,75.90
2022-09-30T06:28:45.640Z,76.00
2022-09-30T06:31:14.679Z,76.20
2022-09-30T06:33:43.529Z,76.40
2022-09-30T06:36:12.083Z,76.30
2022-09-30T06:38:41.968Z,76.50
2022-09-30T06:41:11.618Z,76.30
2022-09-30T06:43:50.325Z,76.30
2022-09-30T06:46:29.596Z,76.50
2022-09-30T06:49:13.259Z,76.50
2022-09-30T06:51:42.342Z,76.60
2022-09-30T06:54:13.660Z,76.70
2022-09-30T06:56:42.013Z,76.90
2022-09-30T06:59:10.316Z,76.90
2022-09-30T07:01:42.282Z,77.10
2022-09-30T07:04:11.432Z,77.40
2022-09-30T07:06:40.298Z,76.60
2022-09-30T07:09:09.823Z,76.40
2022-09-30T07:11:39.935Z,76.70
2022-09-30T07:14:08.786Z,76.70
2022-09-30T07:16:43.374Z,76.60
2022-09-30T07:19:12.347Z,76.50
2022-09-30T07:21:46.770Z,76.50
2022-09-30T07:24:15.142Z,76.30
2022-09-30T07:26:46.027Z,76.60
2022-09-30T07:29:15.337Z,76.10
2022-09-30T07:31:43.891Z,76.00
2022-09-30T07:34:12.632Z,75.70
2022-09-30T07:36:56.667Z,75.70
2022-09-30T07:39:24.939Z,75.70
2022-09-30T07:41:55.372Z,75.30
2022-09-30T07:44:26.287Z,75.20
2022-09-30T07:46:54.891Z,75.00
2022-09-30T07:49:25.792Z,75.10
2022-09-30T07:51:56.446Z,74.60
2022-09-30T07:54:26.777Z,74.50
2022-09-30T07:57:09.745Z,74.40
2022-09-30T07:59:42.305Z,74.30
2022-09-30T08:02:17.094Z,74.40
2022-09-30T08:04:45.529Z,74.20
2022-09-30T08:07:15.473Z,74.20
2022-09-30T08:12:45.776Z,73.90
2022-09-30T08:15:14.130Z,74.00
2022-09-30T08:17:42.509Z,74.10
2022-09-30T08:20:14.297Z,74.00
2022-09-30T08:22:43.999Z,73.40
2022-09-30T08:25:12.701Z,73.10
2022-09-30T08:27:40.946Z,73.40
2022-09-30T08:30:12.846Z,73.00
2022-09-30T08:32:41.108Z,72.60
2022-09-30T08:35:10.001Z,72.60
2022-09-30T08:37:38.142Z,72.30
2022-09-30T08:40:07.849Z,73.30
2022-09-30T08:42:52.919Z,72.30
2022-09-30T08:45:34.679Z,72.20
2022-09-30T08:48:13.783Z,72.10
2022-09-30T08:50:52.010Z,71.90
2022-09-30T08:53:26.539Z,71.40
2022-09-30T08:55:58.110Z,71.70
2022-09-30T08:58:29.701Z,72.30
2022-09-30T09:01:07.159Z,71.30
2022-09-30T09:03:36.804Z,71.20
2022-09-30T09:06:21.568Z,71.10
2022-09-30T09:09:16.003Z,70.70
2022-09-30T09:11:58.103Z,70.20
2022-09-30T09:14:38.177Z,70.20
2022-09-30T09:17:22.145Z,70.30
2022-09-30T09:20:03.509Z,70.30
2022-09-30T09:22:34.141Z,70.40
2022-09-30T09:25:03.207Z,70.10
2022-09-30T09:27:42.710Z,69.80
2022-09-30T09:30:13.436Z,69.70
2022-09-30T09:32:43.918Z,69.60
2022-09-30T09:35:17.299Z,69.70
2022-09-30T09:38:15.006Z,70.20
2022-09-30T09:44:10.580Z,69.10
2022-09-30T09:46:46.052Z,68.80
2022-09-30T09:49:36.338Z,68.40
2022-09-30T09:52:30.746Z,67.70
2022-09-30T09:55:00.859Z,67.60
2022-09-30T09:57:32.517Z,67.70
2022-09-30T10:00:22.962Z,67.40
2022-09-30T10:03:03.900Z,67.10
2022-09-30T10:05:39.924Z,66.60
2022-09-30T10:08:15.180Z,66.60
2022-09-30T10:10:47.908Z,65.90
2022-09-30T10:13:21.223Z,65.50
2022-09-30T10:15:55.359Z,64.60
2022-09-30T10:18:29.417Z,64.20
2022-09-30T10:21:02.238Z,63.90
2022-09-30T10:23:32.646Z,63.60
2022-09-30T10:26:06.405Z,63.20
2022-09-30T10:28:45.773Z,62.50
2022-09-30T10:31:19.017Z,62.20
2022-09-30T10:33:49.529Z,61.70
2022-09-30T10:36:20.890Z,61.50
2022-09-30T10:39:04.148Z,61.00
2022-09-30T10:41:36.963Z,60.90
2022-09-30T10:44:08.552Z,60.90
2022-09-30T10:46:40.393Z,60.50
2022-09-30T10:49:12.993Z,59.80
2022-09-30T10:51:47.759Z,59.60
2022-09-30T10:54:37.588Z,59.30
2022-09-30T10:57:05.942Z,59.20
2022-09-30T10:59:38.467Z,59.50
2022-09-30T11:04:58.878Z,58.30
2022-09-30T11:07:37.103Z,58.20
2022-09-30T11:10:13.359Z,58.00
2022-09-30T11:12:45.747Z,58.20
2022-09-30T11:15:23.276Z,57.60
2022-09-30T11:17:57.627Z,57.40
2022-09-30T11:20:30.924Z,57.30
2022-09-30T11:23:47.978Z,57.00
2022-09-30T11:26:29.579Z,57.00
2022-09-30T11:29:21.619Z,57.00
2022-09-30T11:32:00.251Z,56.60
2022-09-30T11:34:44.084Z,55.60
2022-09-30T11:37:21.082Z,53.90
2022-09-30T11:40:31.097Z,53.10
2022-09-30T11:43:09.705Z,51.10
2022-09-30T11:45:54.119Z,50.70
2022-09-30T11:48:39.036Z,49.90
2022-09-30T11:51:15.960Z,47.90
2022-09-30T11:53:55.688Z,47.20
2022-09-30T11:56:39.222Z,46.00
2022-09-30T11:59:16.698Z,44.70
2022-09-30T12:01:50.001Z,44.30
2022-09-30T12:04:23.386Z,44.10
2022-09-30T12:07:05.426Z,43.10
2022-09-30T12:09:47.982Z,42.20
2022-09-30T12:12:34.290Z,41.00
2022-09-30T12:15:15.913Z,41.20
2022-09-30T12:17:52.726Z,40.10
2022-09-30T12:27:57.210Z,37.80
2022-09-30T12:39:28.314Z,36.10
2022-09-30T12:42:42.940Z,35.90
2022-09-30T12:46:13.831Z,36.70
2022-09-30T12:49:22.946Z,38.30
2022-09-30T12:52:21.816Z,38.80
2022-09-30T12:55:42.883Z,39.00
2022-09-30T13:01:59.593Z,39.20
2022-09-30T13:05:00.327Z,40.20
2022-09-30T13:07:58.281Z,39.00
2022-09-30T13:10:32.782Z,38.90
2022-09-30T13:20:31.868Z,38.50
2022-09-30T13:23:10.960Z,38.00
2022-09-30T13:25:55.524Z,39.00
2022-09-30T13:28:32.573Z,38.50
2022-09-30T13:32:04.386Z,38.70
2022-09-30T13:34:53.508Z,38.40
2022-09-30T17:08:46.273Z,55.20
2022-09-30T17:11:20.794Z,55.70
2022-09-30T17:13:49.382Z,56.00
2022-09-30T17:16:24.760Z,56.50
2022-09-30T17:18:53.707Z,57.40
2022-09-30T17:21:23.539Z,57.40
2022-09-30T17:24:02.178Z,57.40
2022-09-30T17:26:35.655Z,57.70
2022-09-30T17:29:21.043Z,58.40
2022-09-30T17:32:05.296Z,58.40
2022-09-30T17:34:53.288Z,58.30
2022-09-30T17:37:22.242Z,58.50
2022-09-30T17:39:55.692Z,59.00
2022-09-30T17:42:43.658Z,59.20
2022-09-30T17:45:12.442Z,59.30
2022-09-30T17:47:41.544Z,59.50
2022-09-30T17:50:23.769Z,59.80
2022-09-30T17:52:57.177Z,59.80
2022-09-30T17:58:55.660Z,60.40
2022-09-30T18:02:15.168Z,60.10
2022-09-30T18:05:26.150Z,60.10
2022-09-30T18:14:07.232Z,60.20
2022-09-30T18:16:41.919Z,60.30
2022-09-30T18:19:37.785Z,61.00
2022-09-30T18:22:33.063Z,61.40
2022-09-30T18:25:28.705Z,61.40
2022-09-30T18:28:31.993Z,61.00
2022-09-30T18:31:08.862Z,61.10
2022-09-30T18:33:42.501Z,61.30
2022-09-30T18:36:21.210Z,61.70
2022-09-30T18:38:54.193Z,61.70
2022-09-30T18:41:46.446Z,61.90
2022-09-30T18:44:34.040Z,61.90
2022-09-30T18:47:19.312Z,61.60
2022-09-30T18:49:56.640Z,62.40
2022-09-30T18:52:34.843Z,62.00
2022-09-30T18:55:17.668Z,62.80
2022-09-30T18:57:51.295Z,62.40
2022-09-30T19:00:25.256Z,62.30
2022-09-30T19:03:09.030Z,62.60
2022-09-30T19:05:55.725Z,62.80
2022-09-30T19:08:42.429Z,63.30
2022-09-30T19:11:19.831Z,62.70
2022-09-30T19:14:17.043Z,63.00
2022-09-30T19:16:51.754Z,63.20
2022-09-30T19:19:32.333Z,62.90
2022-09-30T19:22:34.100Z,63.20
2022-09-30T19:25:06.019Z,63.50
2022-09-30T19:27:38.776Z,63.60
2022-09-30T19:30:42.662Z,63.80
2022-09-30T19:33:31.679Z,64.20
2022-09-30T19:36:14.947Z,64.00
2022-09-30T19:39:22.524Z,64.00
2022-09-30T19:41:57.238Z,64.10
2022-09-30T19:44:31.935Z,64.20
2022-09-30T19:47:04.731Z,64.50
2022-09-30T19:49:45.150Z,64.70
2022-09-30T19:52:22.286Z,64.60
2022-09-30T19:55:15.768Z,64.90
2022-09-30T20:01:22.038Z,65.50
2022-09-30T20:04:01.542Z,65.10
2022-09-30T20:09:17.153Z,65.60
2022-09-30T20:12:11.428Z,65.90
2022-09-30T20:14:58.131Z,65.50
2022-09-30T20:18:21.616Z,67.10
2022-09-30T20:20:50.086Z,65.90
2022-09-30T20:23:27.502Z,65.90
2022-09-30T20:26:06.108Z,66.10
2022-09-30T20:28:43.034Z,66.00
2022-09-30T20:31:17.690Z,66.30
2022-09-30T20:33:51.162Z,66.70
2022-09-30T20:36:24.408Z,66.30
2022-09-30T20:39:01.232Z,66.80
2022-09-30T20:41:36.040Z,66.60
2022-09-30T20:44:14.192Z,66.70
2022-09-30T20:47:15.960Z,66.80
2022-09-30T20:49:53.190Z,66.70
2022-09-30T20:52:27.040Z,66.80
2022-09-30T20:55:00.607Z,67.00
2022-09-30T20:57:38.501Z,67.00
2022-09-30T21:00:19.393Z,67.20
2022-09-30T21:02:53.623Z,66.90
2022-09-30T21:05:24.415Z,67.00
2022-09-30T21:07:55.554Z,67.20
2022-09-30T21:10:24.404Z,67.70
2022-09-30T21:13:04.973Z,67.50
2022-09-30T21:15:44.181Z,67.70
2022-09-30T21:18:17.065Z,67.80
2022-09-30T21:20:52.416Z,67.50
2022-09-30T21:23:26.332Z,68.10
2022-09-30T21:26:06.415Z,67.50
2022-09-30T21:28:48.101Z,67.90
2022-09-30T21:31:37.627Z,67.80
2022-09-30T21:34:07.752Z,68.00
2022-09-30T21:36:40.619Z,68.10
2022-09-30T21:39:25.916Z,68.20
2022-09-30T21:42:05.906Z,68.00
2022-09-30T21:44:46.638Z,68.20
2022-09-30T21:47:35.393Z,68.60
2022-09-30T21:50:13.376Z,68.30
2022-09-30T21:52:42.354Z,67.80
2022-09-30T21:55:14.159Z,68.30
2022-09-30T21:57:49.201Z,68.50
2022-09-30T22:00:32.215Z,68.40
2022-09-30T22:03:11.520Z,68.40
2022-09-30T22:05:42.583Z,68.30
2022-09-30T22:10:58.856Z,68.60
2022-09-30T22:13:34.154Z,68.50
2022-09-30T22:16:11.128Z,68.10
2022-09-30T22:18:45.663Z,68.40
2022-09-30T22:21:20.306Z,68.90
2022-09-30T22:24:04.760Z,68.70
2022-09-30T22:26:46.474Z,68.50
2022-09-30T22:29:15.757Z,68.50
2022-09-30T22:31:51.018Z,68.90
2022-09-30T22:34:40.750Z,69.00
2022-09-30T22:37:33.334Z,68.90
2022-09-30T22:40:05.532Z,68.80
2022-09-30T22:42:37.778Z,68.80
2022-09-30T22:45:16.353Z,69.20
2022-09-30T22:47:57.343Z,68.90
2022-09-30T22:50:43.553Z,68.90
2022-09-30T22:53:16.063Z,69.40
2022-09-30T22:55:54.376Z,69.30
2022-09-30T22:58:25.027Z,69.00
2022-09-30T23:01:35.965Z,69.50
2022-09-30T23:07:50.039Z,69.70
2022-09-30T23:10:27.100Z,69.20
2022-09-30T23:24:52.150Z,69.40
2022-09-30T23:27:22.623Z,69.80
2022-09-30T23:30:00.035Z,70.30
2022-09-30T23:32:43.872Z,70.10
2022-09-30T23:35:18.889Z,70.20
2022-09-30T23:37:50.778Z,70.10
2022-09-30T23:40:21.912Z,70.20
2022-09-30T23:42:55.858Z,70.50
2022-09-30T23:45:32.695Z,70.70
2022-09-30T23:48:03.883Z,70.40
2022-09-30T23:50:33.314Z,70.50
2022-09-30T23:53:22.548Z,70.60
2022-09-30T23:56:00.104Z,70.30
2022-09-30T23:58:34.424Z,70.40
